Time;durP1;ratioP1;P1;durP2;ratioP2;P2;SDS_P1;SDS_P2;PMS_P1;PMS_P2;Temp;Humidity;BMP_temperature;BMP_pressure;BME280_temperature;BME280_humidity;BME280_pressure;Samples;Min_cycle;Max_cycle;Signal;HPM_P1;HPM_P2
2023/02/04 00:01:04;;;;;;;4.00;2.00;;;;;;;3.15;93.73;98055.46;222863;1280;24276;-87
2023/02/04 00:06:16;;;;;;;5.90;2.10;;;;;;;3.14;93.93;98055.16;222667;1278;22556;-88
2023/02/04 00:11:21;;;;;;;3.50;1.70;;;;;;;3.12;93.80;98058.05;222665;1279;25352;-86
2023/02/04 00:16:34;;;;;;;2.90;1.70;;;;;;;3.12;94.00;98067.25;222963;1277;22487;-87
2023/02/04 00:21:40;;;;;;;4.20;1.90;;;;;;;3.10;94.00;98056.87;222707;1275;22551;-87
2023/02/04 00:26:48;;;;;;;3.20;1.40;;;;;;;3.08;94.05;98046.65;222715;1280;22486;-85
2023/02/04 00:31:52;;;;;;;3.70;1.40;;;;;;;3.05;94.12;98041.20;222488;1268;22555;-87
2023/02/04 00:36:55;;;;;;;2.30;1.60;;;;;;;3.03;94.22;98044.54;222320;1280;22586;-86
2023/02/04 00:41:58;;;;;;;5.30;1.80;;;;;;;3.02;94.01;98044.48;222562;1280;22623;-85
2023/02/04 00:47:01;;;;;;;5.60;2.00;;;;;;;3.01;94.34;98047.39;222483;1280;22533;-87
2023/02/04 00:52:06;;;;;;;3.90;2.30;;;;;;;3.00;94.28;98051.46;222509;1280;22535;-86
2023/02/04 00:57:12;;;;;;;5.70;2.10;;;;;;;3.01;94.33;98044.78;222910;1280;22583;-87
2023/02/04 01:02:18;;;;;;;5.00;1.90;;;;;;;3.01;94.45;98048.38;222740;1278;22535;-86
2023/02/04 01:07:20;;;;;;;3.90;1.90;;;;;;;3.03;94.55;98044.24;222860;1280;22543;-88
2023/02/04 01:12:27;;;;;;;4.50;1.80;;;;;;;3.06;94.43;98038.33;222995;1278;22547;-87
2023/02/04 01:17:31;;;;;;;3.50;1.70;;;;;;;3.09;94.52;98025.16;221920;1280;22556;-86
2023/02/04 01:22:41;;;;;;;2.10;0.90;;;;;;;3.11;94.19;98019.19;221830;1279;22726;-87
2023/02/04 01:27:45;;;;;;;4.70;1.20;;;;;;;3.12;94.29;98019.45;222295;1280;24302;-86
2023/02/04 01:32:57;;;;;;;2.50;1.30;;;;;;;3.12;94.09;98030.54;222240;1280;25483;-87
2023/02/04 01:38:02;;;;;;;2.10;0.70;;;;;;;3.10;94.28;98041.44;221983;1280;23020;-86
2023/02/04 01:43:07;;;;;;;2.60;0.70;;;;;;;3.06;93.88;98046.19;221890;1279;25869;-85
2023/02/04 01:48:19;;;;;;;1.60;0.60;;;;;;;2.98;93.22;98062.98;221921;1262;22566;-87
2023/02/04 01:53:25;;;;;;;1.90;0.50;;;;;;;2.88;92.78;98058.86;222832;1278;22582;-86
2023/02/04 01:58:37;;;;;;;1.20;0.70;;;;;;;2.76;92.21;98072.09;223214;1280;22577;-89
2023/02/04 02:04:01;;;;;;;;;;;;;;;2.61;91.91;98086.84;223010;1280;22535;-87
2023/02/04 02:09:04;;;;;;;1.60;0.70;;;;;;;2.40;92.26;98103.83;222768;1280;22533;-85
2023/02/04 02:14:08;;;;;;;2.00;1.00;;;;;;;2.15;91.93;98103.23;222461;1280;22544;-85
2023/02/04 02:19:16;;;;;;;2.70;1.10;;;;;;;1.97;92.24;98100.52;223101;1280;22541;-83
2023/02/04 02:24:29;;;;;;;3.90;1.30;;;;;;;1.84;92.62;98114.46;224317;1278;22533;-84
2023/02/04 02:29:33;;;;;;;;;;;;;;;1.71;92.44;98113.48;223638;1279;22649;-85
2023/02/04 02:34:42;;;;;;;1.40;1.30;;;;;;;1.60;92.47;98126.73;223147;1262;127557;-81
2023/02/04 02:39:52;;;;;;;;;;;;;;;1.51;92.51;98127.27;223999;1280;22470;-83
2023/02/04 02:45:34;;;;;;;2.00;1.80;;;;;;;1.43;92.59;98140.00;225671;1275;22658;-81
2023/02/04 02:50:40;;;;;;;2.30;1.60;;;;;;;1.34;92.93;98142.02;223941;1280;22620;-86
2023/02/04 02:55:45;;;;;;;1.60;1.20;;;;;;;1.28;93.24;98146.98;223656;1275;23777;-85
2023/02/04 03:00:52;;;;;;;1.50;1.40;;;;;;;1.21;93.35;98147.45;222896;1280;22583;-86
2023/02/04 03:06:11;;;;;;;0.80;0.80;;;;;;;1.17;93.43;98160.47;225123;1280;22481;-83
2023/02/04 03:11:17;;;;;;;1.20;1.10;;;;;;;1.15;93.40;98188.30;224739;1266;24328;-83
2023/02/04 03:16:31;;;;;;;1.20;1.10;;;;;;;1.11;93.67;98190.09;224751;1280;25088;-85
2023/02/04 03:21:34;;;;;;;1.90;1.70;;;;;;;1.05;93.56;98200.06;224491;1278;22567;-82
2023/02/04 03:26:42;;;;;;;1.80;1.40;;;;;;;1.00;93.69;98217.20;225011;1280;24333;-86
2023/02/04 03:31:58;;;;;;;1.50;1.40;;;;;;;0.96;93.39;98230.77;225354;1275;22566;-81
2023/02/04 03:37:04;;;;;;;2.00;1.50;;;;;;;0.93;93.80;98233.31;224422;1278;22537;-85
2023/02/04 03:42:08;;;;;;;1.80;1.60;;;;;;;0.92;93.49;98245.90;223598;1280;22555;-85
2023/02/04 03:47:14;;;;;;;1.70;1.40;;;;;;;0.88;93.91;98259.03;223268;1279;25463;-85
2023/02/04 03:52:30;;;;;;;2.90;2.20;;;;;;;0.81;93.56;98290.56;223943;1279;22918;-85
2023/02/04 03:57:38;;;;;;;5.80;3.50;;;;;;;0.70;93.67;98308.55;224217;1280;25047;-85
2023/02/04 04:02:47;;;;;;;4.20;3.40;;;;;;;0.55;93.21;98349.73;223531;1280;22655;-85
2023/02/04 04:07:55;;;;;;;4.50;3.80;;;;;;;0.40;93.35;98389.02;223137;1280;22544;-86
2023/02/04 04:13:01;;;;;;;6.20;5.30;;;;;;;0.27;93.65;98427.70;223268;1280;22561;-86
2023/02/04 04:18:11;;;;;;;7.60;5.90;;;;;;;0.15;94.20;98468.09;223099;1280;24287;-85
2023/02/04 04:23:22;;;;;;;7.70;6.00;;;;;;;0.05;94.09;98503.59;222703;1273;24231;-86
2023/02/04 04:28:28;;;;;;;8.60;6.60;;;;;;;-0.07;93.29;98539.73;222387;1280;22722;-85
2023/02/04 04:33:31;;;;;;;7.70;6.40;;;;;;;-0.17;92.87;98584.35;221642;1280;23266;-85
2023/02/04 04:38:36;;;;;;;9.40;6.30;;;;;;;-0.27;93.34;98626.14;221924;1280;22643;-86
2023/02/04 04:43:42;;;;;;;8.70;7.50;;;;;;;-0.35;92.59;98654.86;221953;1279;24274;-87
2023/02/04 04:48:48;;;;;;;6.90;5.40;;;;;;;-0.42;93.04;98676.48;221983;1273;22547;-86
2023/02/04 04:53:56;;;;;;;7.40;5.30;;;;;;;-0.47;92.71;98699.20;222032;1278;22574;-87
2023/02/04 04:58:59;;;;;;;6.90;6.00;;;;;;;-0.50;92.94;98723.35;222871;1280;22542;-86
2023/02/04 05:04:04;;;;;;;5.10;4.30;;;;;;;-0.55;92.86;98758.12;222700;1279;25405;-84
2023/02/04 05:09:16;;;;;;;6.10;4.70;;;;;;;-0.58;92.66;98795.77;222816;1280;25652;-88
2023/02/04 05:14:25;;;;;;;5.40;4.30;;;;;;;-0.62;92.34;98831.15;223298;1280;22767;-85
2023/02/04 05:19:37;;;;;;;3.90;3.20;;;;;;;-0.65;92.40;98866.84;223413;1280;23038;-83
2023/02/04 05:25:29;;;;;;;4.20;3.60;;;;;;;-0.71;92.24;98897.20;223998;1280;22474;-87
2023/02/04 05:30:43;;;;;;;4.30;2.90;;;;;;;-0.76;91.40;98940.26;224129;1283;23049;-86
2023/02/04 05:35:49;;;;;;;3.90;3.50;;;;;;;-0.80;91.31;98970.30;223245;1282;22610;-87
2023/02/04 05:40:52;;;;;;;3.10;2.80;;;;;;;-0.84;91.28;99000.84;222434;1283;25437;-86
2023/02/04 05:45:57;;;;;;;3.80;3.40;;;;;;;-0.87;90.87;99041.52;222012;1282;22610;-88
2023/02/04 05:51:10;;;;;;;4.80;3.80;;;;;;;-0.89;90.73;99066.94;221996;1283;22782;-87
2023/02/04 05:56:29;;;;;;;3.70;3.40;;;;;;;-0.91;90.68;99103.38;223822;1283;22539;-87
2023/02/04 06:02:14;;;;;;;4.80;3.90;;;;;;;-0.92;90.41;99125.26;223922;1274;24267;-87
2023/02/04 06:07:37;;;;;;;6.50;4.50;;;;;;;-0.92;90.12;99146.18;223019;1280;25332;-86
2023/02/04 06:12:49;;;;;;;7.30;4.50;;;;;;;-0.92;90.50;99186.98;222743;1280;22575;-88
2023/02/04 06:18:15;;;;;;;5.00;4.00;;;;;;;-0.93;90.31;99203.80;222757;1278;22579;-86
2023/02/04 06:23:34;;;;;;;;;;;;;;;;;;;;;
2023/02/04 06:29:14;;;;;;;8.60;6.00;;;;;;;-0.96;89.76;99265.55;222450;1269;22549;-87
2023/02/04 06:34:29;;;;;;;8.90;6.50;;;;;;;-0.99;89.93;99291.02;222604;1282;22657;-86
2023/02/04 06:39:45;;;;;;;7.30;6.10;;;;;;;-1.03;90.13;99311.64;222750;1281;22680;-86
2023/02/04 06:45:11;;;;;;;10.10;6.00;;;;;;;-1.06;89.67;99333.65;222943;1281;23174;-83
2023/02/04 06:50:44;;;;;;;10.70;7.50;;;;;;;-1.10;90.06;99349.61;223030;1280;24166;-85
2023/02/04 06:56:02;;;;;;;8.10;6.50;;;;;;;-1.12;89.65;99377.73;223449;1279;22888;-84
2023/02/04 07:01:33;;;;;;;9.80;7.40;;;;;;;-1.14;89.63;99398.41;223187;1280;22530;-85
2023/02/04 07:07:11;;;;;;;7.60;5.60;;;;;;;-1.16;89.38;99421.40;223250;1280;22553;-85
2023/02/04 07:12:42;;;;;;;7.60;6.00;;;;;;;-1.12;88.98;99445.35;223137;1280;25320;-83
2023/02/04 07:18:06;;;;;;;8.10;6.30;;;;;;;-1.12;88.62;99460.52;223466;1266;22538;-84
2023/02/04 07:23:27;;;;;;;8.90;7.60;;;;;;;-1.10;88.54;99481.14;223527;1280;23745;-84
2023/02/04 07:28:43;;;;;;;11.20;8.30;;;;;;;-1.10;88.74;99497.39;223633;1280;24241;-83
2023/02/04 07:34:05;;;;;;;10.10;7.50;;;;;;;-1.07;88.49;99508.98;223438;1280;22673;-85
2023/02/04 07:39:35;;;;;;;9.30;7.70;;;;;;;-1.06;88.64;99526.20;223611;1256;22618;-85
2023/02/04 07:44:48;;;;;;;10.10;7.70;;;;;;;-1.05;88.48;99541.02;223898;1272;22677;-85
2023/02/04 07:50:12;;;;;;;10.50;8.20;;;;;;;-1.04;88.54;99550.48;224046;1280;22732;-84
2023/02/04 07:55:30;;;;;;;11.80;8.20;;;;;;;-1.03;88.28;99574.77;223225;1273;22629;-79
2023/02/04 08:00:32;;;;;;;9.70;7.00;;;;;;;-1.03;87.58;99597.76;222279;1272;23889;-86
2023/02/04 08:05:55;;;;;;;15.80;10.60;;;;;;;-1.04;87.65;99615.80;222016;1272;24184;-83
2023/02/04 08:11:05;;;;;;;10.50;8.40;;;;;;;-1.03;87.37;99634.73;222972;1273;22669;-80
2023/02/04 08:16:10;;;;;;;10.40;8.50;;;;;;;-0.97;87.49;99642.33;223115;1274;22555;-81
2023/02/04 08:21:28;;;;;;;11.90;8.80;;;;;;;-0.93;87.71;99656.61;223072;1276;25421;-81
2023/02/04 08:26:32;;;;;;;11.30;9.20;;;;;;;-0.90;87.68;99673.90;223354;1272;25370;-81
2023/02/04 08:31:37;;;;;;;11.10;6.80;;;;;;;-0.88;87.55;99690.89;223038;1276;22611;-81
2023/02/04 08:36:45;;;;;;;11.10;8.50;;;;;;;-0.85;87.23;99705.19;222896;1272;22562;-79
2023/02/04 08:41:52;;;;;;;11.50;9.10;;;;;;;-0.78;87.16;99714.97;222860;1280;22560;-82
2023/02/04 08:46:54;;;;;;;10.20;8.30;;;;;;;-0.70;86.70;99723.83;222877;1265;24280;-80
2023/02/04 08:51:58;;;;;;;11.90;7.70;;;;;;;-0.61;86.76;99729.52;223124;1274;22557;-81
2023/02/04 08:57:02;;;;;;;10.90;8.10;;;;;;;-0.51;86.80;99732.01;223668;1274;22580;-81
2023/02/04 09:02:05;;;;;;;11.50;8.50;;;;;;;-0.44;86.20;99740.37;223912;1272;25430;-81
2023/02/04 09:07:10;;;;;;;8.50;6.70;;;;;;;-0.37;85.94;99755.17;224153;1278;23752;-80
2023/02/04 09:12:22;;;;;;;10.20;7.70;;;;;;;-0.28;85.75;99772.14;221803;1268;22570;-78
2023/02/04 09:17:25;;;;;;;12.70;8.00;;;;;;;-0.01;86.12;99783.55;222475;1278;24119;-78
2023/02/04 09:22:38;;;;;;;8.10;6.50;;;;;;;0.25;85.43;99795.91;222196;1272;22560;-79
2023/02/04 09:27:44;;;;;;;7.70;6.50;;;;;;;0.17;84.48;99819.66;222222;1268;25397;-79
2023/02/04 09:32:58;;;;;;;7.70;5.60;;;;;;;0.10;84.29;99840.21;221738;1269;22549;-78
2023/02/04 09:50:47;;;;;;;10.20;6.70;;;;;;;0.62;83.00;99865.13;217476;1301;560759;-76
2023/02/04 09:55:50;;;;;;;7.80;6.20;;;;;;;0.47;81.73;99882.52;220718;1287;24307;-80
2023/02/04 10:01:00;;;;;;;7.00;5.10;;;;;;;0.22;81.85;99887.05;220942;1280;22596;-79
2023/02/04 10:06:03;;;;;;;8.70;4.80;;;;;;;0.25;82.89;99890.36;220730;1288;22563;-78
2023/02/04 10:11:08;;;;;;;7.20;4.80;;;;;;;0.41;82.54;99901.28;220719;1286;22655;-81
2023/02/04 10:16:30;;;;;;;6.50;4.40;;;;;;;0.75;82.45;99897.41;222372;1267;22543;-79
2023/02/04 10:21:39;;;;;;;4.60;3.50;;;;;;;0.74;80.87;99910.46;221822;1274;24253;-80
2023/02/04 10:26:41;;;;;;;5.10;4.00;;;;;;;0.57;80.23;99916.89;221877;1273;23784;-79
2023/02/04 10:31:46;;;;;;;7.50;4.70;;;;;;;0.68;80.36;99909.44;221656;1260;24713;-78
2023/02/04 10:36:58;;;;;;;5.80;3.90;;;;;;;0.91;80.57;99915.59;222500;1262;22602;-84
2023/02/04 10:42:06;;;;;;;6.30;4.00;;;;;;;0.77;78.97;99905.73;222826;1265;22560;-84
2023/02/04 10:47:17;;;;;;;4.70;3.20;;;;;;;0.71;78.29;99920.34;223171;1275;22543;-80
2023/02/04 10:52:23;;;;;;;3.80;2.60;;;;;;;0.79;77.17;99931.98;222633;1261;22547;-81
2023/02/04 10:57:31;;;;;;;3.60;2.70;;;;;;;0.86;77.89;99930.52;222784;1262;22539;-81
2023/02/04 11:02:50;;;;;;;5.60;3.00;;;;;;;0.81;76.94;99939.66;222688;1264;22581;-80
2023/02/04 11:07:56;;;;;;;4.20;2.60;;;;;;;0.79;76.55;99951.23;222996;1273;22541;-80
2023/02/04 11:13:05;;;;;;;3.70;2.10;;;;;;;0.94;75.65;99937.59;222155;1273;22544;-81
2023/02/04 11:18:26;;;;;;;4.10;2.50;;;;;;;1.09;75.42;99946.19;221936;1275;25486;-81
2023/02/04 11:23:32;;;;;;;2.80;2.20;;;;;;;1.10;74.40;99954.65;221828;1266;22544;-82
2023/02/04 11:29:00;;;;;;;3.30;2.50;;;;;;;1.03;73.99;99954.19;221921;1263;24407;-82
2023/02/04 11:34:34;;;;;;;4.90;2.70;;;;;;;1.05;74.97;99968.63;221731;1277;22537;-82
2023/02/04 11:39:43;;;;;;;3.00;2.20;;;;;;;1.09;74.15;99983.85;221953;1280;23961;-80
2023/02/04 11:45:13;;;;;;;3.20;2.30;;;;;;;1.07;73.87;99991.56;221781;1273;24372;-79
2023/02/04 11:50:33;;;;;;;4.00;2.90;;;;;;;1.13;74.45;99986.02;221924;1262;22586;-79
2023/02/04 11:55:44;;;;;;;5.50;3.40;;;;;;;1.14;74.18;99987.48;221715;1267;25153;-78
2023/02/04 12:00:49;;;;;;;4.40;3.10;;;;;;;1.14;74.08;99986.27;222687;1273;24273;-78
2023/02/04 12:05:53;;;;;;;3.50;2.40;;;;;;;1.10;73.86;99992.77;221718;1272;24228;-81
2023/02/04 12:11:14;;;;;;;3.80;2.70;;;;;;;1.02;73.50;100000.52;221472;1275;24232;-79
2023/02/04 12:16:16;;;;;;;3.40;2.40;;;;;;;0.95;73.73;100005.20;222033;1276;22552;-80
2023/02/04 12:21:28;;;;;;;5.00;2.80;;;;;;;0.87;72.70;100013.15;221983;1273;25261;-81
2023/02/04 12:26:31;;;;;;;3.80;2.40;;;;;;;0.81;72.49;100012.30;221928;1275;23005;-80
2023/02/04 12:31:34;;;;;;;3.00;1.80;;;;;;;0.75;72.75;100025.50;221911;1273;23205;-80
2023/02/04 12:36:37;;;;;;;4.10;2.60;;;;;;;0.74;73.31;100015.02;221997;1270;26320;-80
2023/02/04 12:41:39;;;;;;;2.80;2.10;;;;;;;0.87;73.36;100011.73;221989;1275;22543;-79
2023/02/04 12:46:45;;;;;;;3.70;2.30;;;;;;;0.89;72.56;100025.36;221965;1276;22558;-80
2023/02/04 12:51:48;;;;;;;3.70;2.50;;;;;;;0.83;73.18;100035.79;222034;1272;25093;-79
2023/02/04 12:56:52;;;;;;;3.50;2.10;;;;;;;0.77;73.80;100041.35;221919;1275;22530;-78
2023/02/04 13:01:54;;;;;;;3.70;2.10;;;;;;;0.64;73.50;100039.89;221827;1275;23325;-80
2023/02/04 13:06:56;;;;;;;3.70;2.10;;;;;;;0.62;73.54;100041.24;221800;1273;26711;-80
2023/02/04 13:11:59;;;;;;;3.20;2.00;;;;;;;0.59;73.45;100041.96;221834;1275;22761;-77
2023/02/04 13:17:01;;;;;;;3.90;2.10;;;;;;;0.53;73.21;100052.92;222043;1269;23432;-81
2023/02/04 13:22:04;;;;;;;4.40;2.20;;;;;;;0.45;73.31;100057.54;221996;1272;22574;-78
2023/02/04 13:27:06;;;;;;;4.00;2.60;;;;;;;0.39;73.51;100070.91;221896;1269;22540;-79
2023/02/04 13:32:09;;;;;;;4.50;2.30;;;;;;;0.37;73.85;100075.67;222002;1269;22549;-79
2023/02/04 13:37:11;;;;;;;4.30;2.30;;;;;;;0.39;74.49;100087.54;221957;1276;24281;-79
2023/02/04 13:42:14;;;;;;;4.20;2.50;;;;;;;0.38;74.08;100088.13;221988;1273;24387;-79
2023/02/04 13:47:16;;;;;;;5.00;3.00;;;;;;;0.38;74.82;100095.73;221976;1275;25326;-79
2023/02/04 13:52:19;;;;;;;4.30;2.80;;;;;;;0.37;74.90;100093.21;222104;1276;24247;-79
2023/02/04 13:57:21;;;;;;;5.30;3.10;;;;;;;0.33;74.71;100093.21;222113;1273;22667;-79
2023/02/04 14:02:24;;;;;;;4.50;3.50;;;;;;;0.28;75.07;100087.46;222090;1276;22553;-79
2023/02/04 14:07:26;;;;;;;4.80;3.00;;;;;;;0.21;75.10;100102.80;222099;1269;22529;-82
2023/02/04 14:12:28;;;;;;;4.60;3.30;;;;;;;0.03;75.94;100117.41;221978;1276;22610;-79
2023/02/04 14:17:31;;;;;;;5.30;3.60;;;;;;;-0.22;77.48;100118.48;222095;1275;24937;-80
2023/02/04 14:22:34;;;;;;;6.90;3.90;;;;;;;-0.40;78.24;100125.69;221957;1275;22724;-80
2023/02/04 14:27:40;;;;;;;8.10;4.40;;;;;;;-0.47;78.98;100134.94;222016;1273;22537;-79
2023/02/04 14:32:44;;;;;;;6.70;4.20;;;;;;;-0.49;79.28;100140.95;222044;1276;22568;-78
2023/02/04 14:37:46;;;;;;;8.60;5.50;;;;;;;-0.50;79.94;100148.59;222004;1254;22531;-79
2023/02/04 14:42:48;;;;;;;6.90;3.90;;;;;;;-0.47;79.73;100143.60;221927;1273;24226;-80
2023/02/04 14:47:51;;;;;;;4.50;3.20;;;;;;;-0.43;79.68;100142.17;221941;1273;23011;-78
2023/02/04 14:52:55;;;;;;;7.30;3.50;;;;;;;-0.40;79.72;100139.17;221913;1272;26494;-79
2023/02/04 14:57:57;;;;;;;5.50;3.30;;;;;;;-0.38;79.93;100138.73;221949;1274;24963;-79
2023/02/04 15:03:03;;;;;;;8.70;3.50;;;;;;;-0.39;79.88;100150.40;222075;1272;23758;-79
2023/02/04 15:08:05;;;;;;;7.80;3.40;;;;;;;-0.41;79.86;100155.73;222189;1270;25353;-79
2023/02/04 15:13:07;;;;;;;6.40;3.90;;;;;;;-0.43;79.70;100169.65;221947;1276;23342;-79
2023/02/04 15:18:09;;;;;;;5.80;3.60;;;;;;;-0.52;79.91;100173.64;221984;1275;22719;-78
2023/02/04 15:23:13;;;;;;;6.90;4.50;;;;;;;-0.62;80.29;100182.51;221834;1273;22648;-79
2023/02/04 15:28:16;;;;;;;4.50;3.20;;;;;;;-0.70;80.49;100189.98;221907;1272;23736;-79
2023/02/04 15:33:18;;;;;;;6.50;3.80;;;;;;;-0.83;80.64;100198.11;221939;1269;22618;-79
2023/02/04 15:38:20;;;;;;;6.40;4.10;;;;;;;-0.93;80.70;100195.42;221913;1276;22464;-79
2023/02/04 15:43:23;;;;;;;5.20;3.30;;;;;;;-1.01;80.56;100202.73;221948;1272;23161;-80
2023/02/04 15:48:27;;;;;;;7.20;3.50;;;;;;;-1.06;80.59;100203.33;221836;1273;23297;-79
2023/02/04 15:53:29;;;;;;;5.10;3.50;;;;;;;-1.09;80.96;100204.35;221978;1272;22488;-80
2023/02/04 15:58:33;;;;;;;6.90;3.90;;;;;;;-1.11;80.60;100211.19;221948;1275;22549;-79
2023/02/04 16:03:36;;;;;;;5.40;3.70;;;;;;;-1.12;80.92;100210.56;222020;1272;24156;-79
2023/02/04 16:08:40;;;;;;;8.00;4.10;;;;;;;-1.14;80.87;100219.13;221573;1277;22527;-79
2023/02/04 16:13:43;;;;;;;6.00;4.10;;;;;;;-1.17;81.00;100217.86;221617;1276;22545;-77
2023/02/04 16:18:46;;;;;;;7.90;4.30;;;;;;;-1.19;80.89;100225.83;221597;1273;22640;-77
2023/02/04 16:23:48;;;;;;;5.00;3.10;;;;;;;-1.22;81.09;100229.42;221762;1274;22533;-77
2023/02/04 16:28:50;;;;;;;7.40;4.00;;;;;;;-1.24;81.37;100235.02;221793;1275;25381;-77
2023/02/04 16:33:52;;;;;;;4.60;3.30;;;;;;;-1.24;81.25;100229.70;221839;1275;22546;-77
2023/02/04 16:38:58;;;;;;;6.40;3.10;;;;;;;-1.26;81.27;100234.78;221839;1275;22702;-77
2023/02/04 16:44:00;;;;;;;8.40;4.50;;;;;;;-1.27;81.58;100240.36;221830;1273;22596;-76
2023/02/04 16:49:03;;;;;;;8.30;5.10;;;;;;;-1.25;81.86;100240.97;221794;1273;23369;-77
2023/02/04 16:54:08;;;;;;;7.30;4.40;;;;;;;-1.24;82.13;100239.36;221904;1275;26746;-77
2023/02/04 16:59:11;;;;;;;7.90;5.10;;;;;;;-1.25;82.06;100240.80;221752;1275;25450;-76
2023/02/04 17:04:13;;;;;;;10.00;5.70;;;;;;;-1.26;82.11;100238.22;221809;1270;26637;-75
2023/02/04 17:09:15;;;;;;;11.10;6.70;;;;;;;-1.22;82.32;100244.46;221723;1275;22531;-76
2023/02/04 17:14:19;;;;;;;11.20;6.70;;;;;;;-1.20;82.39;100245.34;221820;1273;24261;-76
2023/02/04 17:19:24;;;;;;;13.50;7.50;;;;;;;-1.17;82.28;100247.95;221760;1272;22763;-76
2023/02/04 17:24:29;;;;;;;8.10;5.00;;;;;;;-1.13;82.10;100252.63;221796;1271;24257;-76
2023/02/04 17:29:30;;;;;;;7.90;3.80;;;;;;;-1.11;81.95;100254.40;221738;1267;25414;-76
2023/02/04 17:34:32;;;;;;;7.90;4.20;;;;;;;-1.09;81.63;100256.02;221770;1272;22655;-76
2023/02/04 17:39:35;;;;;;;6.70;3.60;;;;;;;-1.08;81.58;100256.34;221771;1272;22536;-77
2023/02/04 17:44:37;;;;;;;7.50;4.30;;;;;;;-1.08;80.87;100263.41;221754;1274;22673;-76
2023/02/04 17:49:39;;;;;;;8.80;4.10;;;;;;;-1.06;80.95;100266.13;221797;1275;22672;-76
2023/02/04 17:54:42;;;;;;;7.30;3.60;;;;;;;-1.05;81.19;100272.63;221796;1275;24275;-76
2023/02/04 17:59:45;;;;;;;6.00;3.30;;;;;;;-1.04;80.94;100277.58;221712;1275;22887;-75
2023/02/04 18:04:48;;;;;;;6.90;3.40;;;;;;;-1.03;80.75;100282.02;221628;1277;22542;-76
2023/02/04 18:09:50;;;;;;;6.80;3.80;;;;;;;-1.04;80.22;100276.89;221788;1277;22789;-76
2023/02/04 18:14:53;;;;;;;4.90;3.10;;;;;;;-1.04;80.22;100281.21;221886;1275;23600;-77
2023/02/04 18:19:55;;;;;;;4.20;2.80;;;;;;;-1.04;79.92;100283.34;221779;1275;22586;-77
2023/02/04 18:24:58;;;;;;;8.20;3.30;;;;;;;-1.05;79.60;100279.54;221643;1278;22530;-76
2023/02/04 18:30:00;;;;;;;4.20;2.60;;;;;;;-1.05;79.64;100291.65;221698;1272;22549;-76
2023/02/04 18:35:39;;;;;;;3.50;2.30;;;;;;;-1.05;79.31;100285.79;221726;1275;25701;-77
2023/02/04 18:40:41;;;;;;;5.30;2.80;;;;;;;-1.07;79.18;100281.86;221785;1275;24247;-76
2023/02/04 18:45:44;;;;;;;6.40;3.20;;;;;;;-1.06;79.09;100281.50;221817;1272;22537;-76
2023/02/04 18:50:53;;;;;;;5.60;2.80;;;;;;;-1.06;79.39;100283.92;221735;1277;24230;-77
2023/02/04 18:55:57;;;;;;;6.00;3.20;;;;;;;-1.08;79.23;100283.98;221551;1275;22648;-77
2023/02/04 19:01:20;;;;;;;7.80;4.00;;;;;;;-1.07;79.40;100284.32;221874;1275;25327;-77
2023/02/04 19:06:41;;;;;;;6.30;3.90;;;;;;;-1.09;79.37;100295.27;221826;1272;24216;-76
2023/02/04 19:11:54;;;;;;;6.90;3.80;;;;;;;-1.14;80.10;100300.70;221871;1271;25501;-77
2023/02/04 19:17:27;;;;;;;5.20;3.70;;;;;;;-1.21;80.78;100311.62;221739;1278;22530;-75
2023/02/04 19:22:48;;;;;;;8.10;4.10;;;;;;;-1.29;81.33;100303.55;221679;1277;22547;-76
2023/02/04 19:27:54;;;;;;;5.50;3.70;;;;;;;-1.35;81.65;100305.25;221838;1275;22530;-76
2023/02/04 19:33:14;;;;;;;6.10;4.00;;;;;;;-1.40;82.00;100301.85;221903;1275;22666;-76
2023/02/04 19:38:39;;;;;;;5.70;3.80;;;;;;;-1.42;81.93;100301.45;221825;1275;24928;-76
2023/02/04 19:43:41;;;;;;;6.90;4.70;;;;;;;-1.43;82.44;100298.55;221907;1275;22631;-77
2023/02/04 19:48:46;;;;;;;8.30;4.90;;;;;;;-1.44;82.59;100304.45;221821;1275;23637;-75
2023/02/04 19:53:53;;;;;;;5.50;3.30;;;;;;;-1.45;82.95;100330.73;221710;1275;22537;-77
2023/02/04 19:58:56;;;;;;;3.80;2.00;;;;;;;-1.57;83.27;100334.29;221832;1273;22625;-76
2023/02/04 20:04:01;;;;;;;2.90;1.30;;;;;;;-1.80;84.02;100332.83;221799;1275;24161;-76
2023/02/04 20:09:24;;;;;;;3.60;3.20;;;;;;;-1.97;84.09;100336.52;222186;1276;22563;-77
2023/02/04 20:14:40;;;;;;;3.30;2.00;;;;;;;-2.08;84.13;100359.00;221704;1277;22677;-76
2023/02/04 20:19:43;;;;;;;4.40;2.50;;;;;;;-2.17;84.09;100363.86;221828;1272;24249;-76
2023/02/04 20:25:23;;;;;;;4.70;3.50;;;;;;;-2.21;84.22;100358.83;221733;1278;22680;-75
2023/02/04 20:30:29;;;;;;;5.40;3.70;;;;;;;-2.26;84.42;100361.50;221613;1278;24298;-76
2023/02/04 20:35:37;;;;;;;8.70;5.40;;;;;;;-2.32;84.44;100359.38;221637;1275;24294;-74
2023/02/04 20:40:41;;;;;;;7.20;4.80;;;;;;;-2.38;84.43;100359.96;221728;1275;25510;-74
2023/02/04 20:45:52;;;;;;;11.70;6.10;;;;;;;-2.40;84.32;100367.84;221887;1274;26705;-75
2023/02/04 20:50:56;;;;;;;12.50;7.10;;;;;;;-2.38;84.47;100370.16;221822;1275;25564;-75
2023/02/04 20:56:21;;;;;;;10.40;5.40;;;;;;;-2.32;84.59;100365.41;222123;1276;22986;-75
2023/02/04 21:01:35;;;;;;;14.50;9.10;;;;;;;-2.24;84.49;100366.76;221815;1273;22677;-74
2023/02/04 21:06:38;;;;;;;11.70;7.80;;;;;;;-2.16;84.67;100381.05;221989;1274;22679;-75
2023/02/04 21:11:40;;;;;;;10.50;5.70;;;;;;;-2.09;84.23;100390.98;221740;1275;22632;-75
2023/02/04 21:16:43;;;;;;;10.70;6.00;;;;;;;-2.11;84.09;100395.35;221821;1266;22605;-75
2023/02/04 21:21:45;;;;;;;7.40;5.20;;;;;;;-2.20;83.89;100400.20;221813;1274;22751;-75
2023/02/04 21:26:48;;;;;;;5.80;3.70;;;;;;;-2.25;83.72;100413.42;221742;1276;25790;-74
2023/02/04 21:31:50;;;;;;;6.50;4.20;;;;;;;-2.25;83.47;100416.00;221754;1275;26624;-74
2023/02/04 21:36:52;;;;;;;6.00;4.10;;;;;;;-2.23;83.08;100417.81;221660;1277;22539;-75
2023/02/04 21:42:08;;;;;;;4.40;2.90;;;;;;;-2.25;82.47;100436.33;221745;1255;24834;-75
2023/02/04 21:47:12;;;;;;;5.00;3.40;;;;;;;-2.32;81.90;100437.18;221933;1266;22593;-75
2023/02/04 21:52:14;;;;;;;5.90;3.40;;;;;;;-2.38;81.78;100436.92;221546;1278;161668;-74
2023/02/04 21:57:16;;;;;;;4.90;2.80;;;;;;;-2.40;81.46;100442.70;221748;1278;24376;-74
2023/02/04 22:02:18;;;;;;;6.90;3.70;;;;;;;-2.40;81.45;100441.50;221667;1275;22583;-75
2023/02/04 22:07:19;;;;;;;8.60;4.00;;;;;;;-2.39;81.03;100443.70;221657;1278;25484;-75
2023/02/04 22:12:25;;;;;;;7.80;3.20;;;;;;;-2.39;80.78;100441.98;221791;1277;22589;-74
2023/02/04 22:17:28;;;;;;;5.70;3.00;;;;;;;-2.40;80.33;100445.29;221649;1275;22596;-76
2023/02/04 22:22:33;;;;;;;6.40;2.80;;;;;;;-2.40;80.28;100437.70;221728;1275;22711;-75
2023/02/04 22:27:35;;;;;;;7.50;3.30;;;;;;;-2.39;80.05;100442.16;221757;1275;24275;-74
2023/02/04 22:32:40;;;;;;;6.10;3.80;;;;;;;-2.39;79.84;100450.08;221738;1266;22614;-74
2023/02/04 22:37:42;;;;;;;5.10;3.30;;;;;;;-2.38;80.03;100456.27;221710;1255;25473;-75
2023/02/04 22:42:46;;;;;;;7.80;3.70;;;;;;;-2.37;80.14;100463.92;221561;1278;22577;-74
2023/02/04 22:47:49;;;;;;;10.10;6.20;;;;;;;-2.35;80.30;100468.67;221585;1275;24402;-76
2023/02/04 22:52:52;;;;;;;8.10;4.50;;;;;;;-2.31;80.56;100470.96;221782;1277;22582;-74
2023/02/04 22:57:54;;;;;;;8.70;4.10;;;;;;;-2.27;80.30;100472.00;221676;1278;22653;-74
2023/02/04 23:02:55;;;;;;;7.60;4.00;;;;;;;-2.23;80.79;100472.83;221626;1276;22533;-74
2023/02/04 23:07:57;;;;;;;6.50;4.20;;;;;;;-2.18;80.84;100474.66;221751;1276;22576;-74
2023/02/04 23:12:59;;;;;;;8.20;4.20;;;;;;;-2.13;80.69;100484.67;221664;1278;23268;-74
2023/02/04 23:18:04;;;;;;;6.40;3.60;;;;;;;-2.11;80.85;100488.04;221772;1277;23898;-74
2023/02/04 23:23:16;;;;;;;7.10;4.10;;;;;;;-2.09;80.81;100488.83;221753;1273;23836;-74
2023/02/04 23:28:18;;;;;;;9.60;4.70;;;;;;;-2.06;81.10;100493.85;221689;1276;22520;-75
2023/02/04 23:33:23;;;;;;;8.80;4.30;;;;;;;-2.05;81.18;100492.59;221596;1278;22545;-74
2023/02/04 23:38:29;;;;;;;7.70;3.50;;;;;;;-2.04;81.31;100491.18;221721;1275;25103;-74
2023/02/04 23:43:31;;;;;;;8.70;4.50;;;;;;;-2.04;81.36;100491.88;221710;1275;24263;-74
2023/02/04 23:48:34;;;;;;;8.50;4.40;;;;;;;-2.07;81.18;100487.67;221545;1278;24616;-75
2023/02/04 23:53:36;;;;;;;7.40;4.30;;;;;;;-2.06;81.74;100491.79;221663;1275;23425;-74
2023/02/04 23:58:38;;;;;;;10.00;5.20;;;;;;;-2.07;81.87;100484.73;221709;1278;23081;-74
